createdAt,value
2016-11-15T00:00:49.106Z,35.38
2016-11-15T00:01:57.860Z,35.28
2016-11-15T00:03:06.951Z,35.57
2016-11-15T00:04:16.274Z,35.38
2016-11-15T00:05:25.213Z,35.57
2016-11-15T00:06:34.543Z,35.38
2016-11-15T00:07:43.864Z,35.28
2016-11-15T00:08:53.075Z,35.28
2016-11-15T00:10:02.351Z,35.28
2016-11-15T00:11:11.901Z,35.28
2016-11-15T00:12:20.711Z,35.38
2016-11-15T00:13:30.111Z,35.18
2016-11-15T00:14:39.492Z,35.38
2016-11-15T00:15:49.091Z,35.47
2016-11-15T00:16:58.109Z,35.28
2016-11-15T00:18:07.186Z,35.47
2016-11-15T00:19:15.872Z,35.38
2016-11-15T00:20:24.898Z,35.38
2016-11-15T00:21:33.606Z,35.57
2016-11-15T00:22:42.747Z,35.28
2016-11-15T00:26:23.909Z,35.47
2016-11-15T00:27:33.079Z,35.28
2016-11-15T00:28:41.794Z,35.38
2016-11-15T00:29:51.138Z,35.38
2016-11-15T00:31:00.224Z,35.38
2016-11-15T00:32:09.245Z,35.28
2016-11-15T00:33:18.919Z,35.38
2016-11-15T00:34:27.964Z,35.38
2016-11-15T00:35:36.963Z,35.28
2016-11-15T00:36:46.272Z,35.18
2016-11-15T00:37:55.263Z,35.47
2016-11-15T00:39:04.456Z,35.28
2016-11-15T00:40:13.453Z,35.38
2016-11-15T00:41:22.498Z,35.28
2016-11-15T00:42:31.216Z,35.28
2016-11-15T00:43:40.214Z,35.38
2016-11-15T00:44:49.223Z,35.28
2016-11-15T00:45:58.535Z,35.38
2016-11-15T00:47:07.536Z,35.28
2016-11-15T00:48:16.868Z,35.28
2016-11-15T00:49:25.562Z,35.47
2016-11-15T00:50:34.756Z,35.28
2016-11-15T00:51:44.131Z,35.38
2016-11-15T00:52:53.169Z,35.28
2016-11-15T00:54:02.218Z,35.08
2016-11-15T00:55:10.916Z,35.28
2016-11-15T00:56:20.222Z,35.18
2016-11-15T00:57:29.262Z,35.28
2016-11-15T00:58:38.275Z,35.08
2016-11-15T00:59:47.283Z,35.38
2016-11-15T01:00:55.988Z,35.28
2016-11-15T01:02:05.608Z,35.18
2016-11-15T01:03:14.967Z,35.08
2016-11-15T01:04:24.630Z,35.18
2016-11-15T01:05:33.640Z,35.28
2016-11-15T01:06:42.956Z,35.28
2016-11-15T01:07:52.273Z,35.08
2016-11-15T01:09:01.657Z,35.18
2016-11-15T01:10:10.384Z,35.18
2016-11-15T01:11:19.703Z,35.08
2016-11-15T01:12:28.721Z,34.99
2016-11-15T01:13:37.601Z,35.08
2016-11-15T01:14:46.317Z,34.89
2016-11-15T01:15:55.644Z,34.99
2016-11-15T01:17:04.980Z,35.08
2016-11-15T01:18:13.764Z,35.08
2016-11-15T01:19:22.786Z,35.08
2016-11-15T01:20:32.119Z,34.99
2016-11-15T01:21:40.815Z,35.08
2016-11-15T01:22:50.159Z,35.08
2016-11-15T01:23:59.153Z,35.08
2016-11-15T01:25:08.167Z,35.18
2016-11-15T01:26:17.204Z,35.18
2016-11-15T01:27:26.523Z,35.08
2016-11-15T01:28:35.877Z,35.08
2016-11-15T01:29:44.884Z,34.99
2016-11-15T01:30:54.354Z,35.18
2016-11-15T01:32:03.356Z,35.18
2016-11-15T01:33:12.386Z,35.18
2016-11-15T01:34:21.435Z,35.18
2016-11-15T01:35:30.748Z,35.18
2016-11-15T01:36:39.737Z,35.08
2016-11-15T01:37:48.459Z,35.08
2016-11-15T01:38:57.814Z,34.99
2016-11-15T01:40:06.533Z,34.89
2016-11-15T01:41:16.151Z,35.08
2016-11-15T01:42:25.153Z,34.89
2016-11-15T01:43:34.518Z,34.99
2016-11-15T01:44:43.531Z,34.99
2016-11-15T01:45:52.854Z,35.08
2016-11-15T01:47:02.528Z,35.08
2016-11-15T01:48:11.844Z,35.08
2016-11-15T01:49:20.544Z,35.08
2016-11-15T01:50:29.576Z,35.18
2016-11-15T01:51:38.631Z,34.99
2016-11-15T01:52:47.661Z,34.99
2016-11-15T01:53:56.985Z,34.99
2016-11-15T01:55:06.293Z,35.08
2016-11-15T01:56:15.318Z,34.99
2016-11-15T01:57:24.317Z,35.08
2016-11-15T01:58:33.304Z,35.08
2016-11-15T01:59:42.292Z,35.08
2016-11-15T02:00:50.996Z,35.08
2016-11-15T02:01:59.990Z,35.08
2016-11-15T02:03:08.692Z,35.08
2016-11-15T02:04:17.420Z,35.08
2016-11-15T02:05:26.420Z,34.89
2016-11-15T02:06:35.746Z,34.89
2016-11-15T02:07:44.766Z,34.99
2016-11-15T02:08:53.807Z,35.08
2016-11-15T02:10:02.816Z,34.89
2016-11-15T02:11:11.869Z,34.8
2016-11-15T02:12:21.483Z,35.08
2016-11-15T02:13:30.162Z,35.08
2016-11-15T02:14:39.490Z,34.89
2016-11-15T02:15:48.523Z,34.89
2016-11-15T02:16:57.872Z,35.08
2016-11-15T02:18:06.580Z,34.99
2016-11-15T02:19:15.903Z,34.89
2016-11-15T02:20:24.916Z,34.89
2016-11-15T02:21:33.921Z,34.89
2016-11-15T02:22:42.613Z,35.08
2016-11-15T02:23:51.612Z,34.89
2016-11-15T02:25:00.645Z,34.89
2016-11-15T02:26:09.664Z,34.99
2016-11-15T02:27:18.713Z,34.99
2016-11-15T02:28:28.081Z,34.89
2016-11-15T02:29:36.806Z,34.99
2016-11-15T02:30:46.148Z,34.99
2016-11-15T02:31:54.861Z,34.99
2016-11-15T02:33:03.928Z,34.99
2016-11-15T02:34:12.984Z,34.89
2016-11-15T02:35:21.716Z,34.89
2016-11-15T02:36:30.807Z,34.89
2016-11-15T02:37:39.846Z,34.89
2016-11-15T02:38:49.153Z,34.99
2016-11-15T02:39:58.476Z,34.99
2016-11-15T02:41:08.127Z,35.08
2016-11-15T02:42:16.824Z,35.08
2016-11-15T02:43:25.861Z,35.18
2016-11-15T02:44:34.867Z,34.99
2016-11-15T02:45:43.861Z,35.08
2016-11-15T02:46:53.309Z,35.08
2016-11-15T02:48:02.060Z,35.18
2016-11-15T02:49:11.371Z,35.08
2016-11-15T02:50:20.085Z,35.08
2016-11-15T02:51:28.973Z,35.08
2016-11-15T02:52:38.312Z,34.99
2016-11-15T02:53:47.050Z,35.08
2016-11-15T02:54:56.125Z,34.8
2016-11-15T02:56:05.748Z,35.08
2016-11-15T02:57:14.602Z,35.08
2016-11-15T02:58:23.651Z,35.18
2016-11-15T02:59:32.343Z,35.18
2016-11-15T03:00:41.349Z,35.18
2016-11-15T03:01:50.672Z,34.99
2016-11-15T03:03:00.068Z,35.18
2016-11-15T03:04:09.413Z,35.08
2016-11-15T03:05:18.425Z,35.08
2016-11-15T03:06:27.486Z,35.08
2016-11-15T03:07:36.496Z,35.18
2016-11-15T03:08:46.169Z,35.08
2016-11-15T03:09:55.795Z,35.08
2016-11-15T03:11:04.522Z,35.18
2016-11-15T03:12:13.545Z,35.08
2016-11-15T03:13:22.662Z,34.68
2016-11-15T03:14:32.309Z,34.61
2016-11-15T03:15:41.628Z,34.59
2016-11-15T03:16:50.343Z,34.78
2016-11-15T03:17:59.346Z,34.7
2016-11-15T03:19:08.046Z,34.61
2016-11-15T03:20:17.839Z,34.59
2016-11-15T03:21:26.565Z,34.7
2016-11-15T03:22:35.270Z,34.7
2016-11-15T03:23:43.981Z,34.41
2016-11-15T03:24:52.726Z,34.61
2016-11-15T03:26:02.065Z,34.41
2016-11-15T03:27:11.082Z,34.41
2016-11-15T03:28:20.367Z,34.49
2016-11-15T03:29:29.394Z,34.51
2016-11-15T03:30:38.074Z,34.8
2016-11-15T03:31:47.059Z,34.49
2016-11-15T03:32:55.743Z,34.8
2016-11-15T03:34:05.350Z,34.61
2016-11-15T03:35:14.389Z,34.51
2016-11-15T03:36:23.070Z,34.51
2016-11-15T03:37:31.967Z,34.39
2016-11-15T03:38:40.983Z,34.51
2016-11-15T03:39:49.711Z,34.31
2016-11-15T03:40:59.311Z,34.39
2016-11-15T03:42:08.333Z,34.49
2016-11-15T03:43:17.042Z,34.88
2016-11-15T03:44:25.786Z,34.31
2016-11-15T03:45:34.790Z,34.3
2016-11-15T03:46:44.401Z,34.31
2016-11-15T03:47:53.700Z,34.3
2016-11-15T03:49:02.940Z,34.39
2016-11-15T03:50:11.701Z,34.2
2016-11-15T03:51:21.042Z,34.88
2016-11-15T03:52:30.356Z,34.89
2016-11-15T03:53:39.064Z,34.3
2016-11-15T03:54:49.284Z,34.39
2016-11-15T03:55:58.637Z,34.31
2016-11-15T03:57:08.041Z,34.41
2016-11-15T03:58:17.335Z,34.31
2016-11-15T03:59:26.674Z,34.31
2016-11-15T04:00:35.686Z,34.99
2016-11-15T04:01:44.378Z,34.39
2016-11-15T04:02:53.689Z,34.97
2016-11-15T04:04:03.383Z,34.99
2016-11-15T04:05:12.684Z,35.06
2016-11-15T04:06:21.695Z,35.06
2016-11-15T04:07:30.743Z,34.41
2016-11-15T04:08:39.763Z,35.08
2016-11-15T04:09:48.794Z,34.89
2016-11-15T04:10:57.512Z,34.31
2016-11-15T04:12:06.523Z,34.22
2016-11-15T04:13:15.538Z,34.8
2016-11-15T04:14:24.536Z,34.2
2016-11-15T04:15:33.541Z,35.06
2016-11-15T04:16:42.554Z,34.2
2016-11-15T04:17:51.301Z,34.68
2016-11-15T04:19:00.315Z,34.12
2016-11-15T04:20:09.630Z,34.61
2016-11-15T04:21:18.393Z,34.11
2016-11-15T04:22:27.139Z,34.12
2016-11-15T04:23:36.447Z,34.51
2016-11-15T04:24:45.485Z,34.59
2016-11-15T04:25:54.536Z,34.12
2016-11-15T04:27:03.526Z,34.12
2016-11-15T04:28:12.534Z,34.3
2016-11-15T04:29:21.876Z,34.51
2016-11-15T04:30:31.211Z,34.2
2016-11-15T04:31:39.922Z,34.51
2016-11-15T04:32:48.957Z,34.39
2016-11-15T04:33:57.958Z,34.12
2016-11-15T04:35:06.684Z,34.51
2016-11-15T04:36:15.666Z,34.39
2016-11-15T04:37:24.990Z,34.3
2016-11-15T04:38:34.296Z,34.51
2016-11-15T04:39:43.015Z,34.49
2016-11-15T04:40:52.052Z,34.49
2016-11-15T04:42:00.778Z,34.59
2016-11-15T04:43:09.826Z,34.59
2016-11-15T04:44:18.526Z,34.61
2016-11-15T04:45:27.542Z,34.01
2016-11-15T04:46:37.535Z,34.59
2016-11-15T04:47:46.556Z,34.12
2016-11-15T04:48:56.162Z,34.03
2016-11-15T04:50:05.490Z,34.49
2016-11-15T04:51:14.794Z,34.39
2016-11-15T04:52:23.635Z,34.61
2016-11-15T04:53:32.362Z,34.01
2016-11-15T04:54:41.673Z,34.39
2016-11-15T04:55:51.000Z,34.2
2016-11-15T04:57:00.628Z,34.49
2016-11-15T04:58:09.842Z,34.01
2016-11-15T04:59:18.585Z,34.49
2016-11-15T05:00:27.629Z,34.3
2016-11-15T05:01:36.643Z,34.51
2016-11-15T05:02:45.682Z,34.49
2016-11-15T05:03:55.153Z,34.49
2016-11-15T05:05:04.189Z,34.39
2016-11-15T05:06:12.899Z,34.59
2016-11-15T05:07:22.260Z,34.2
2016-11-15T05:08:31.585Z,34.11
2016-11-15T05:09:40.275Z,34.3
2016-11-15T05:10:49.914Z,34.3
2016-11-15T05:11:59.068Z,34.39
2016-11-15T05:13:07.759Z,34.3
2016-11-15T05:14:17.097Z,34.3
2016-11-15T05:15:26.574Z,34.3
2016-11-15T05:16:35.624Z,34.3
2016-11-15T05:17:44.649Z,34.2
2016-11-15T05:18:53.687Z,34.3
2016-11-15T05:20:02.389Z,34.3
2016-11-15T05:21:12.055Z,34.3
2016-11-15T05:22:20.816Z,34.3
2016-11-15T05:23:29.835Z,34.3
2016-11-15T05:24:39.138Z,34.3
2016-11-15T05:25:48.137Z,34.3
2016-11-15T05:26:57.747Z,34.39
2016-11-15T05:28:07.077Z,34.39
2016-11-15T05:29:15.790Z,34.3
2016-11-15T05:30:24.514Z,34.39
2016-11-15T05:31:34.175Z,34.39
2016-11-15T05:32:43.170Z,34.3
2016-11-15T05:33:52.194Z,34.39
2016-11-15T05:35:01.237Z,34.2
2016-11-15T05:36:10.225Z,34.39
2016-11-15T05:37:18.965Z,34.22
2016-11-15T05:38:28.929Z,34.12
2016-11-15T05:39:37.644Z,34.12
2016-11-15T05:40:47.020Z,34.22
2016-11-15T05:41:56.085Z,33.93
2016-11-15T05:43:05.099Z,33.93
2016-11-15T05:44:13.947Z,33.74
2016-11-15T05:45:22.650Z,33.26
2016-11-15T05:46:31.666Z,33.36
2016-11-15T05:47:41.317Z,33.18
2016-11-15T05:48:50.299Z,33.37
2016-11-15T05:49:59.896Z,33.37
2016-11-15T05:51:08.918Z,32.89
2016-11-15T05:52:17.634Z,33.08
2016-11-15T05:53:27.054Z,32.79
2016-11-15T05:54:35.789Z,32.98
2016-11-15T05:55:44.624Z,32.98
2016-11-15T05:56:54.251Z,32.9
2016-11-15T05:58:03.266Z,32.52
2016-11-15T05:59:12.887Z,32.52
2016-11-15T06:00:21.916Z,32.33
2016-11-15T06:01:31.268Z,32.14
2016-11-15T06:02:40.609Z,32.14
2016-11-15T06:03:49.913Z,32.04
2016-11-15T06:04:59.215Z,32.04
2016-11-15T06:06:08.531Z,31.96
2016-11-15T06:07:17.991Z,31.87
2016-11-15T06:08:27.029Z,31.96
2016-11-15T06:09:36.058Z,31.67
2016-11-15T06:10:45.402Z,31.77
2016-11-15T06:11:54.725Z,31.77
2016-11-15T06:13:04.052Z,31.77
2016-11-15T06:14:12.756Z,31.57
2016-11-15T06:15:21.745Z,31.57
2016-11-15T06:16:31.071Z,31.57
2016-11-15T06:17:40.102Z,31.57
2016-11-15T06:18:49.113Z,31.67
2016-11-15T06:19:57.830Z,31.48
2016-11-15T06:21:06.529Z,31.49
2016-11-15T06:22:16.173Z,31.59
2016-11-15T06:23:25.523Z,31.4
2016-11-15T06:24:34.692Z,31.4
2016-11-15T06:25:43.401Z,31.4
2016-11-15T06:26:52.399Z,31.49
2016-11-15T06:28:01.114Z,31.11
2016-11-15T06:29:10.108Z,31.21
2016-11-15T06:30:19.246Z,31.3
2016-11-15T06:31:27.970Z,31.21
2016-11-15T06:32:37.586Z,31.22
2016-11-15T06:33:46.891Z,31.12
2016-11-15T06:34:55.934Z,31.03
2016-11-15T06:36:05.537Z,30.83
2016-11-15T06:37:14.861Z,30.93
2016-11-15T06:38:24.127Z,30.83
2016-11-15T06:39:32.825Z,30.64
2016-11-15T06:40:42.196Z,30.74
2016-11-15T06:41:51.336Z,30.74
2016-11-15T06:43:00.949Z,30.66
2016-11-15T06:44:10.264Z,30.74
2016-11-15T06:45:19.592Z,30.76
2016-11-15T06:46:28.895Z,30.66
2016-11-15T06:47:37.896Z,30.46
2016-11-15T06:48:47.224Z,30.46
2016-11-15T06:49:55.907Z,30.27
2016-11-15T06:51:05.244Z,30.46
2016-11-15T06:52:14.270Z,30.46
2016-11-15T06:53:23.289Z,30.08
2016-11-15T06:54:32.065Z,30.18
2016-11-15T06:55:41.060Z,30.08
2016-11-15T06:56:49.773Z,30.19
2016-11-15T06:57:58.779Z,30.19
2016-11-15T06:59:08.109Z,30
2016-11-15T07:00:17.121Z,30.58
2016-11-15T07:01:25.844Z,30.48
2016-11-15T07:02:34.884Z,30.38
2016-11-15T07:03:44.634Z,30.19
2016-11-15T07:04:53.347Z,30.67
2016-11-15T07:06:02.098Z,30.58
2016-11-15T07:07:11.116Z,30.67
2016-11-15T07:08:20.116Z,30.67
2016-11-15T07:09:29.250Z,30.77
2016-11-15T07:10:38.282Z,30.77
2016-11-15T07:11:47.001Z,30.94
2016-11-15T07:12:56.317Z,30.96
2016-11-15T07:14:05.339Z,30.94
2016-11-15T07:15:14.373Z,31.14
2016-11-15T07:16:23.070Z,31.14
2016-11-15T07:17:32.371Z,31.14
2016-11-15T07:18:41.053Z,31.33
2016-11-15T07:19:50.051Z,31.24
2016-11-15T07:20:59.040Z,31.43
2016-11-15T07:22:08.397Z,31.33
2016-11-15T07:23:17.380Z,31.43
2016-11-15T07:24:26.371Z,31.52
2016-11-15T07:25:35.375Z,31.52
2016-11-15T07:26:44.417Z,31.52
2016-11-15T07:27:53.414Z,31.72
2016-11-15T07:29:02.103Z,31.81
2016-11-15T07:30:11.103Z,31.81
2016-11-15T07:31:20.411Z,31.81
2016-11-15T07:32:30.019Z,32.09
2016-11-15T07:33:39.037Z,31.99
2016-11-15T07:34:48.056Z,32.18
2016-11-15T07:35:57.682Z,31.99
2016-11-15T07:37:06.683Z,32.18
2016-11-15T07:38:15.691Z,32.18
2016-11-15T07:39:24.378Z,32.38
2016-11-15T07:40:33.680Z,32.47
2016-11-15T07:41:42.699Z,32.57
2016-11-15T07:42:52.003Z,32.67
2016-11-15T07:44:01.339Z,32.57
2016-11-15T07:45:10.665Z,32.47
2016-11-15T07:46:19.971Z,32.76
2016-11-15T07:47:29.278Z,32.86
2016-11-15T07:48:37.976Z,32.76
2016-11-15T07:49:47.344Z,32.57
2016-11-15T07:50:56.176Z,32.95
2016-11-15T07:52:04.917Z,32.94
2016-11-15T07:53:13.613Z,33.13
2016-11-15T07:54:22.306Z,33.03
2016-11-15T07:55:31.289Z,33.03
2016-11-15T07:56:40.639Z,32.94
2016-11-15T07:57:49.952Z,33.23
2016-11-15T07:58:58.943Z,33.33
2016-11-15T08:00:07.934Z,33.42
2016-11-15T08:01:16.624Z,33.23
2016-11-15T08:02:25.320Z,33.03
2016-11-15T08:03:34.307Z,33.23
2016-11-15T08:04:43.925Z,33.42
2016-11-15T08:05:53.538Z,33.51
2016-11-15T08:07:02.534Z,33.42
2016-11-15T08:08:11.217Z,33.23
2016-11-15T08:09:19.908Z,33.51
2016-11-15T08:10:28.901Z,33.51
2016-11-15T08:11:38.192Z,33.33
2016-11-15T08:12:47.078Z,33.42
2016-11-15T08:13:56.063Z,33.33
2016-11-15T08:15:04.783Z,33.33
2016-11-15T08:16:13.529Z,33.61
2016-11-15T08:17:22.225Z,33.5
2016-11-15T08:18:31.520Z,33.71
2016-11-15T08:19:40.508Z,33.79
2016-11-15T08:20:49.521Z,33.79
2016-11-15T08:21:58.539Z,33.89
2016-11-15T08:23:07.859Z,34.08
2016-11-15T08:24:16.853Z,34.17
2016-11-15T08:25:25.887Z,34.17
2016-11-15T08:26:34.905Z,33.98
2016-11-15T08:27:43.903Z,34.08
2016-11-15T08:28:52.598Z,33.98
2016-11-15T08:30:01.284Z,33.98
2016-11-15T08:31:10.578Z,34.08
2016-11-15T08:32:19.894Z,33.98
2016-11-15T08:33:29.249Z,33.89
2016-11-15T08:34:39.157Z,33.69
2016-11-15T08:35:48.192Z,34.37
2016-11-15T08:36:57.238Z,34.46
2016-11-15T08:38:05.929Z,34.37
2016-11-15T08:39:15.226Z,34.37
2016-11-15T08:40:24.526Z,34.27
2016-11-15T08:41:33.530Z,34.17
2016-11-15T08:42:42.546Z,34.27
2016-11-15T08:43:51.609Z,34.27
2016-11-15T08:45:01.219Z,34.17
2016-11-15T08:46:10.708Z,34.17
2016-11-15T08:47:20.073Z,34.17
2016-11-15T08:48:29.103Z,34.17
2016-11-15T08:49:38.133Z,34.08
2016-11-15T08:50:47.130Z,34.17
2016-11-15T08:51:56.129Z,34.17
2016-11-15T08:53:05.158Z,34.17
2016-11-15T08:54:14.208Z,34.17
2016-11-15T08:55:23.257Z,34.08
2016-11-15T08:56:31.976Z,34.17
2016-11-15T08:57:40.840Z,34.46
2016-11-15T08:58:49.835Z,34.37
2016-11-15T08:59:59.137Z,34.45
2016-11-15T09:01:08.157Z,34.46
2016-11-15T09:02:16.894Z,34.35
2016-11-15T09:03:25.888Z,34.25
2016-11-15T09:04:35.497Z,34.37
2016-11-15T09:05:44.531Z,34.25
2016-11-15T09:06:53.291Z,34.35
2016-11-15T09:08:02.323Z,34.35
2016-11-15T09:09:11.622Z,34.16
2016-11-15T09:10:20.949Z,34.27
2016-11-15T09:11:30.253Z,34.35
2016-11-15T09:12:39.563Z,34.54
2016-11-15T09:13:48.269Z,34.35
2016-11-15T09:14:57.568Z,34.66
2016-11-15T09:16:06.441Z,34.54
2016-11-15T09:17:15.745Z,34.25
2016-11-15T09:18:24.427Z,34.54
2016-11-15T09:19:33.436Z,34.16
2016-11-15T09:20:42.753Z,34.54
2016-11-15T09:21:52.056Z,34.54
2016-11-15T09:23:01.055Z,34.54
2016-11-15T09:24:10.675Z,34.64
2016-11-15T09:25:19.673Z,34.45
2016-11-15T09:26:28.664Z,34.54
2016-11-15T09:27:38.271Z,34.64
2016-11-15T09:28:47.280Z,34.64
2016-11-15T09:29:56.031Z,34.64
2016-11-15T09:31:05.639Z,34.54
2016-11-15T09:32:14.970Z,34.35
2016-11-15T09:33:24.324Z,34.45
2016-11-15T09:34:33.670Z,34.54
2016-11-15T09:35:43.537Z,34.45
2016-11-15T09:36:52.540Z,34.45
2016-11-15T09:38:01.543Z,34.74
2016-11-15T09:39:10.410Z,34.45
2016-11-15T09:40:19.714Z,34.64
2016-11-15T09:41:28.701Z,34.54
2016-11-15T09:42:37.918Z,34.25
2016-11-15T09:43:47.211Z,34.45
2016-11-15T09:44:56.846Z,34.25
2016-11-15T09:46:05.885Z,34.64
2016-11-15T09:47:14.590Z,34.64
2016-11-15T09:48:23.639Z,34.25
2016-11-15T09:49:32.661Z,34.16
2016-11-15T09:50:42.938Z,34.25
2016-11-15T09:51:51.927Z,34.74
2016-11-15T09:53:00.947Z,34.74
2016-11-15T09:54:09.958Z,34.16
2016-11-15T09:55:19.274Z,34.83
2016-11-15T09:56:28.429Z,34.16
2016-11-15T09:57:37.771Z,35.02
2016-11-15T09:58:47.083Z,34.35
2016-11-15T09:59:55.808Z,34.92
2016-11-15T10:01:04.824Z,35.02
2016-11-15T10:02:14.460Z,34.45
2016-11-15T10:03:23.479Z,34.35
2016-11-15T10:04:32.188Z,35.02
2016-11-15T10:05:41.567Z,34.45
2016-11-15T10:06:50.253Z,35.02
2016-11-15T10:07:58.969Z,34.45
2016-11-15T10:09:08.278Z,35.02
2016-11-15T10:10:17.364Z,35.02
2016-11-15T10:11:26.471Z,34.45
2016-11-15T10:12:35.466Z,34.92
2016-11-15T10:13:44.654Z,34.54
2016-11-15T10:14:53.668Z,34.35
2016-11-15T10:16:02.674Z,34.25
2016-11-15T10:17:11.691Z,35.02
2016-11-15T10:18:21.006Z,34.45
2016-11-15T10:19:30.954Z,34.35
2016-11-15T10:20:39.663Z,34.45
2016-11-15T10:21:48.683Z,35.12
2016-11-15T10:22:57.400Z,34.35
2016-11-15T10:24:06.473Z,35.12
2016-11-15T10:25:15.470Z,35.12
2016-11-15T10:26:24.782Z,34.45
2016-11-15T10:27:33.822Z,34.35
2016-11-15T10:28:42.837Z,34.54
2016-11-15T10:29:51.893Z,34.35
2016-11-15T10:31:00.909Z,34.45
2016-11-15T10:32:10.247Z,34.92
2016-11-15T10:33:18.971Z,34.25
2016-11-15T10:34:28.320Z,34.92
2016-11-15T10:35:37.662Z,34.35
2016-11-15T10:36:47.338Z,34.92
2016-11-15T10:37:56.677Z,34.25
2016-11-15T10:39:05.683Z,34.35
2016-11-15T10:40:15.331Z,35.02
2016-11-15T10:41:24.680Z,34.35
2016-11-15T10:42:33.701Z,34.25
2016-11-15T10:43:42.720Z,34.35
2016-11-15T10:44:51.741Z,34.92
2016-11-15T10:46:01.105Z,34.25
2016-11-15T10:47:10.143Z,34.45
2016-11-15T10:48:19.310Z,34.45
2016-11-15T10:49:28.630Z,34.92
2016-11-15T10:50:38.264Z,34.45
2016-11-15T10:51:46.974Z,34.25
2016-11-15T10:52:56.414Z,34.45
2016-11-15T10:54:05.756Z,34.45
2016-11-15T10:55:14.794Z,34.35
2016-11-15T10:56:23.779Z,34.83
2016-11-15T10:57:32.807Z,34.35
2016-11-15T10:58:41.811Z,34.45
2016-11-15T10:59:50.958Z,34.45
2016-11-15T11:00:59.974Z,34.45
2016-11-15T11:02:09.004Z,34.45
2016-11-15T11:03:18.330Z,34.45
2016-11-15T11:04:27.632Z,34.45
2016-11-15T11:05:36.636Z,34.92
2016-11-15T11:06:45.332Z,34.45
2016-11-15T11:07:54.354Z,34.64
2016-11-15T11:09:03.058Z,34.83
2016-11-15T11:10:12.078Z,34.45
2016-11-15T11:11:21.678Z,34.45
2016-11-15T11:12:30.430Z,34.54
2016-11-15T11:13:39.444Z,34.64
2016-11-15T11:14:48.158Z,34.54
2016-11-15T11:15:57.480Z,34.54
2016-11-15T11:17:06.502Z,34.64
2016-11-15T11:18:15.858Z,34.45
2016-11-15T11:19:25.179Z,34.64
2016-11-15T11:20:34.204Z,34.54
2016-11-15T11:21:43.210Z,35.02
2016-11-15T11:22:52.822Z,34.92
2016-11-15T11:24:02.122Z,34.45
2016-11-15T11:25:11.107Z,34.64
2016-11-15T11:26:20.408Z,34.54
2016-11-15T11:27:30.025Z,34.45
2016-11-15T11:28:39.360Z,34.74
2016-11-15T11:29:48.071Z,34.81
2016-11-15T11:30:57.401Z,34.72
2016-11-15T11:32:06.120Z,34.64
2016-11-15T11:33:14.808Z,34.83
2016-11-15T11:34:24.508Z,34.74
2016-11-15T11:35:33.528Z,34.62
2016-11-15T11:36:42.237Z,35.1
2016-11-15T11:37:51.846Z,34.72
2016-11-15T11:39:00.863Z,34.62
2016-11-15T11:40:10.003Z,34.64
2016-11-15T11:41:19.057Z,34.74
2016-11-15T11:42:27.751Z,34.72
2016-11-15T11:43:37.074Z,34.64
2016-11-15T11:44:46.415Z,34.64
2016-11-15T11:45:55.429Z,34.74
2016-11-15T11:47:04.435Z,34.74
2016-11-15T11:48:14.042Z,34.64
2016-11-15T11:49:23.951Z,34.64
2016-11-15T11:50:32.960Z,35.12
2016-11-15T11:51:42.287Z,34.74
2016-11-15T11:52:51.342Z,34.72
2016-11-15T11:54:00.645Z,34.64
2016-11-15T11:55:09.664Z,34.74
2016-11-15T11:56:19.277Z,34.62
2016-11-15T11:57:28.756Z,34.74
2016-11-15T11:58:37.459Z,34.54
2016-11-15T11:59:46.765Z,34.74
2016-11-15T12:00:56.074Z,34.72
2016-11-15T12:02:05.373Z,34.74
2016-11-15T12:03:14.413Z,35.22
2016-11-15T12:04:23.407Z,35.22
2016-11-15T12:05:32.419Z,35.1
2016-11-15T12:06:41.116Z,34.62
2016-11-15T12:07:49.813Z,35.12
2016-11-15T12:08:59.421Z,34.64
2016-11-15T12:10:08.132Z,34.64
2016-11-15T12:11:17.764Z,35.12
2016-11-15T12:12:27.396Z,35.2
2016-11-15T12:13:36.401Z,35.02
2016-11-15T12:14:45.863Z,35.12
2016-11-15T12:15:54.862Z,35.1
2016-11-15T12:17:03.874Z,35.2
2016-11-15T12:18:12.887Z,35.1
2016-11-15T12:19:22.522Z,35.1
2016-11-15T12:20:31.690Z,35.1
2016-11-15T12:21:40.392Z,35.12
2016-11-15T12:22:49.415Z,35.12
2016-11-15T12:23:58.458Z,35
2016-11-15T12:25:07.791Z,35.12
2016-11-15T12:26:16.955Z,35.1
2016-11-15T12:27:25.981Z,35
2016-11-15T12:28:35.597Z,35.1
2016-11-15T12:29:44.915Z,35.2
2016-11-15T12:30:54.249Z,35
2016-11-15T12:32:03.394Z,35.12
2016-11-15T12:33:12.403Z,35
2016-11-15T12:34:21.090Z,35
2016-11-15T12:35:30.124Z,35
2016-11-15T12:36:38.834Z,35.1
2016-11-15T12:37:48.147Z,35.1
2016-11-15T12:38:57.185Z,35
2016-11-15T12:40:06.527Z,35.1
2016-11-15T12:41:15.236Z,35.1
2016-11-15T12:42:23.988Z,35.1
2016-11-15T12:43:33.315Z,35.1
2016-11-15T12:44:42.024Z,35.1
2016-11-15T12:45:50.763Z,35
2016-11-15T12:47:00.103Z,35.1
2016-11-15T12:48:09.755Z,35.1
2016-11-15T12:49:19.108Z,35.1
2016-11-15T12:50:28.133Z,35
2016-11-15T12:51:37.244Z,35
2016-11-15T12:52:46.864Z,35.1
2016-11-15T12:53:56.013Z,35
2016-11-15T12:55:04.725Z,35.1
2016-11-15T12:56:13.757Z,35.1
2016-11-15T12:57:22.763Z,35
2016-11-15T12:58:31.486Z,35.1
2016-11-15T12:59:40.493Z,34.91
2016-11-15T13:00:49.801Z,35
2016-11-15T13:01:59.444Z,35.1
2016-11-15T13:03:08.466Z,35.1
2016-11-15T13:04:17.778Z,35
2016-11-15T13:05:26.502Z,35
2016-11-15T13:06:35.529Z,35.1
2016-11-15T13:07:44.859Z,35
2016-11-15T13:08:54.200Z,34.91
2016-11-15T13:10:03.545Z,34.91
2016-11-15T13:11:12.884Z,35
2016-11-15T13:12:22.519Z,35
2016-11-15T13:13:31.537Z,34.91
2016-11-15T13:14:40.605Z,34.91
2016-11-15T13:15:49.318Z,34.91
2016-11-15T13:16:58.646Z,34.92
2016-11-15T13:18:07.970Z,35
2016-11-15T13:19:17.006Z,34.91
2016-11-15T13:20:26.005Z,34.91
2016-11-15T13:21:35.638Z,34.91
2016-11-15T13:22:44.962Z,34.91
2016-11-15T13:23:54.276Z,34.91
2016-11-15T13:25:03.631Z,34.81
2016-11-15T13:26:12.708Z,34.91
2016-11-15T13:27:21.432Z,34.91
2016-11-15T13:28:30.124Z,35.1
2016-11-15T13:29:38.984Z,34.91
2016-11-15T13:30:48.326Z,35.3
2016-11-15T13:31:57.351Z,34.91
2016-11-15T13:33:07.014Z,35
2016-11-15T13:34:16.351Z,34.91
2016-11-15T13:35:25.071Z,35
2016-11-15T13:36:34.412Z,35
2016-11-15T13:37:44.058Z,34.91
2016-11-15T13:38:52.787Z,35
2016-11-15T13:40:01.524Z,34.91
2016-11-15T13:41:10.578Z,34.91
2016-11-15T13:42:19.313Z,34.91
2016-11-15T13:43:28.334Z,34.91
2016-11-15T13:44:37.693Z,35
2016-11-15T13:45:46.741Z,35
2016-11-15T13:46:56.078Z,35
2016-11-15T13:48:05.423Z,35
2016-11-15T13:49:14.444Z,34.81
2016-11-15T13:50:23.479Z,35.1
2016-11-15T13:51:32.791Z,34.81
2016-11-15T13:55:14.476Z,34.81
2016-11-15T13:56:23.795Z,35.1
2016-11-15T13:57:32.835Z,35.1
2016-11-15T13:58:42.157Z,35
2016-11-15T13:59:51.483Z,35.2
2016-11-15T14:01:00.523Z,35
2016-11-15T14:02:09.550Z,35
2016-11-15T14:03:18.615Z,35
2016-11-15T14:04:27.626Z,35
2016-11-15T14:05:36.683Z,35.1
2016-11-15T14:06:45.389Z,35.1
2016-11-15T14:07:54.101Z,35
2016-11-15T14:09:03.417Z,35.1
2016-11-15T14:10:12.456Z,35
2016-11-15T14:11:21.484Z,35
2016-11-15T14:12:30.500Z,35.1
2016-11-15T14:13:39.798Z,35.1
2016-11-15T14:14:48.517Z,35.1
2016-11-15T14:15:58.143Z,35
2016-11-15T14:17:07.760Z,35
2016-11-15T14:18:16.791Z,35
2016-11-15T14:19:25.806Z,35
2016-11-15T14:20:35.134Z,35
2016-11-15T14:21:45.073Z,35
2016-11-15T14:22:54.741Z,35.1
2016-11-15T14:24:03.464Z,35
2016-11-15T14:25:12.779Z,35.1
2016-11-15T14:26:22.115Z,34.91
2016-11-15T14:27:31.425Z,35.1
2016-11-15T14:28:40.458Z,35.1
2016-11-15T14:29:49.762Z,35.1
2016-11-15T14:30:58.460Z,35
2016-11-15T14:32:07.765Z,34.91
2016-11-15T14:33:16.771Z,35
2016-11-15T14:34:26.085Z,35.1
2016-11-15T14:35:35.110Z,34.91
2016-11-15T14:36:44.165Z,35.1
2016-11-15T14:37:53.478Z,35
2016-11-15T14:39:03.097Z,35.1
2016-11-15T14:40:11.792Z,34.91
2016-11-15T14:41:20.504Z,35
2016-11-15T14:42:29.843Z,35
2016-11-15T14:43:39.773Z,35
2016-11-15T14:44:48.774Z,35
2016-11-15T14:45:57.786Z,34.91
2016-11-15T14:47:06.485Z,35
2016-11-15T14:48:15.481Z,35
2016-11-15T14:49:24.243Z,35.1
2016-11-15T14:50:33.539Z,35.1
2016-11-15T14:51:42.837Z,35.1
2016-11-15T14:52:52.139Z,35.1
2016-11-15T14:54:01.147Z,34.91
2016-11-15T14:55:10.138Z,35.3
2016-11-15T14:56:18.834Z,35.1
2016-11-15T14:57:28.484Z,35.2
2016-11-15T14:58:37.477Z,35.2
2016-11-15T14:59:46.175Z,35.1
2016-11-15T15:00:55.265Z,35.1
2016-11-15T15:02:04.909Z,35.2
2016-11-15T15:03:13.922Z,35.2
2016-11-15T15:04:23.553Z,35.2
2016-11-15T15:05:32.860Z,35.2